Silver Dollar City, Missouri
Current Conditions -  °F | °C
As of 2:35 AM on Friday 28 Nov 2014 (Local Time) from KFWB Reporting Station
Clear Clear  
Wind Chill: 32°   Ceiling: Unl
Heat Index: 32°   Visibility: 10mi
Dew Point: 23°   Wind: 3mph
Humidity: 69%   Direction: 100°E
Pressure: 30.29"   Gusts: NA
Location:  36.6858°N, 93.2638°W
Report Text: KFWB 280835Z AUTO 10003KT 10SM CLR 00/M05 A3029 RMK AO2
Loading
Personal Weather Stations






























Interactive Weather Map New forecast layout! Learn more

10-Day Weather Forecast

Advertisements
Track Severe Weather on mobile